Watertown, Minnesota
Current Conditions -  °F | °C
As of 1:15 AM on Friday 31 Oct 2014 (Local Time) from KCFE Reporting Station
Clear Clear  
Wind Chill: 21°   Ceiling: Unl
Heat Index: 30°   Visibility: 10mi
Dew Point: 15°   Wind: 10mph
Humidity: 52%   Direction: 340°NNW
Pressure: 30.43"   Gusts: 18mph
Location:  44.96°N, 93.85°W
Report Text: KCFE 310615Z AUTO 34009G16KT 10SM CLR M01/M10 A3043 RMK AO2 T10101097
Loading
Personal Weather Stations






























Interactive Weather Map
Tropical Storm Tracking
New forecast layout! Learn more

10-Day Weather Forecast

Advertisements
Track Severe Weather on mobile